sensor_id;sensor_type;location;lat;lon;timestamp;pressure;altitude;pressure_sealevel;temperature
20736;BMP180;10528;52.124;5.196;2023-07-13T00:02:08;101273.00;;;25.60
20736;BMP180;10528;52.124;5.196;2023-07-13T00:04:36;101282.00;;;25.60
20736;BMP180;10528;52.124;5.196;2023-07-13T00:07:03;101273.00;;;25.50
20736;BMP180;10528;52.124;5.196;2023-07-13T00:09:30;101274.00;;;25.50
20736;BMP180;10528;52.124;5.196;2023-07-13T00:11:58;101272.00;;;25.40
20736;BMP180;10528;52.124;5.196;2023-07-13T00:14:27;101281.00;;;25.50
20736;BMP180;10528;52.124;5.196;2023-07-13T00:16:55;101274.00;;;25.50
20736;BMP180;10528;52.124;5.196;2023-07-13T00:19:23;101272.00;;;25.50
20736;BMP180;10528;52.124;5.196;2023-07-13T00:21:50;101275.00;;;25.50
20736;BMP180;10528;52.124;5.196;2023-07-13T00:24:18;101277.00;;;25.50
20736;BMP180;10528;52.124;5.196;2023-07-13T00:26:51;101264.00;;;25.50
20736;BMP180;10528;52.124;5.196;2023-07-13T00:29:19;101274.00;;;25.50
20736;BMP180;10528;52.124;5.196;2023-07-13T00:31:48;101267.00;;;25.40
20736;BMP180;10528;52.124;5.196;2023-07-13T00:34:16;101281.00;;;25.40
20736;BMP180;10528;52.124;5.196;2023-07-13T00:36:43;101290.00;;;25.40
20736;BMP180;10528;52.124;5.196;2023-07-13T00:39:10;101282.00;;;25.40
20736;BMP180;10528;52.124;5.196;2023-07-13T00:41:37;101280.00;;;25.40
20736;BMP180;10528;52.124;5.196;2023-07-13T00:44:04;101273.00;;;25.40
20736;BMP180;10528;52.124;5.196;2023-07-13T00:46:34;101275.00;;;25.40
20736;BMP180;10528;52.124;5.196;2023-07-13T00:49:10;101271.00;;;25.40
20736;BMP180;10528;52.124;5.196;2023-07-13T00:51:58;101273.00;;;25.30
20736;BMP180;10528;52.124;5.196;2023-07-13T00:54:41;101280.00;;;25.30
20736;BMP180;10528;52.124;5.196;2023-07-13T00:57:16;101273.00;;;25.20
20736;BMP180;10528;52.124;5.196;2023-07-13T00:59:55;101274.00;;;25.20
20736;BMP180;10528;52.124;5.196;2023-07-13T01:02:25;101273.00;;;25.10
20736;BMP180;10528;52.124;5.196;2023-07-13T01:04:52;101271.00;;;25.10
20736;BMP180;10528;52.124;5.196;2023-07-13T01:07:19;101284.00;;;25.10
20736;BMP180;10528;52.124;5.196;2023-07-13T01:09:47;101287.00;;;25.10
20736;BMP180;10528;52.124;5.196;2023-07-13T01:12:14;101283.00;;;25.00
20736;BMP180;10528;52.124;5.196;2023-07-13T01:14:41;101285.00;;;25.00
20736;BMP180;10528;52.124;5.196;2023-07-13T01:17:11;101283.00;;;25.00
20736;BMP180;10528;52.124;5.196;2023-07-13T01:19:44;101281.00;;;24.90
20736;BMP180;10528;52.124;5.196;2023-07-13T01:22:18;101288.00;;;24.90
20736;BMP180;10528;52.124;5.196;2023-07-13T01:24:47;101281.00;;;24.90
20736;BMP180;10528;52.124;5.196;2023-07-13T01:27:21;101278.00;;;24.80
20736;BMP180;10528;52.124;5.196;2023-07-13T01:29:48;101282.00;;;24.80
20736;BMP180;10528;52.124;5.196;2023-07-13T01:32:24;101291.00;;;24.80
20736;BMP180;10528;52.124;5.196;2023-07-13T01:34:55;101295.00;;;24.80
20736;BMP180;10528;52.124;5.196;2023-07-13T01:37:24;101293.00;;;24.80
20736;BMP180;10528;52.124;5.196;2023-07-13T01:39:51;101288.00;;;24.70
20736;BMP180;10528;52.124;5.196;2023-07-13T01:42:19;101290.00;;;24.70
20736;BMP180;10528;52.124;5.196;2023-07-13T01:44:47;101295.00;;;24.70
20736;BMP180;10528;52.124;5.196;2023-07-13T01:47:14;101283.00;;;24.60
20736;BMP180;10528;52.124;5.196;2023-07-13T01:49:41;101282.00;;;24.60
20736;BMP180;10528;52.124;5.196;2023-07-13T01:52:08;101300.00;;;24.60
20736;BMP180;10528;52.124;5.196;2023-07-13T01:54:35;101304.00;;;24.60
20736;BMP180;10528;52.124;5.196;2023-07-13T01:57:03;101302.00;;;24.50
20736;BMP180;10528;52.124;5.196;2023-07-13T01:59:30;101297.00;;;24.60
20736;BMP180;10528;52.124;5.196;2023-07-13T02:01:59;101297.00;;;24.60
20736;BMP180;10528;52.124;5.196;2023-07-13T02:04:26;101298.00;;;24.50
20736;BMP180;10528;52.124;5.196;2023-07-13T02:06:54;101300.00;;;24.50
20736;BMP180;10528;52.124;5.196;2023-07-13T02:09:22;101294.00;;;24.50
20736;BMP180;10528;52.124;5.196;2023-07-13T02:11:49;101301.00;;;24.50
20736;BMP180;10528;52.124;5.196;2023-07-13T02:14:16;101298.00;;;24.50
20736;BMP180;10528;52.124;5.196;2023-07-13T02:16:44;101313.00;;;24.50
20736;BMP180;10528;52.124;5.196;2023-07-13T02:19:11;101308.00;;;24.50
20736;BMP180;10528;52.124;5.196;2023-07-13T02:21:38;101311.00;;;24.40
20736;BMP180;10528;52.124;5.196;2023-07-13T02:24:05;101306.00;;;24.40
20736;BMP180;10528;52.124;5.196;2023-07-13T02:26:32;101313.00;;;24.40
20736;BMP180;10528;52.124;5.196;2023-07-13T02:28:59;101302.00;;;24.40
20736;BMP180;10528;52.124;5.196;2023-07-13T02:31:26;101310.00;;;24.40
20736;BMP180;10528;52.124;5.196;2023-07-13T02:33:53;101313.00;;;24.30
20736;BMP180;10528;52.124;5.196;2023-07-13T02:36:20;101309.00;;;24.30
20736;BMP180;10528;52.124;5.196;2023-07-13T02:38:50;101302.00;;;24.30
20736;BMP180;10528;52.124;5.196;2023-07-13T02:41:17;101315.00;;;24.30
20736;BMP180;10528;52.124;5.196;2023-07-13T02:43:45;101312.00;;;24.30
20736;BMP180;10528;52.124;5.196;2023-07-13T02:46:12;101316.00;;;24.20
20736;BMP180;10528;52.124;5.196;2023-07-13T02:48:40;101318.00;;;24.20
20736;BMP180;10528;52.124;5.196;2023-07-13T02:51:07;101314.00;;;24.20
20736;BMP180;10528;52.124;5.196;2023-07-13T02:53:35;101311.00;;;24.20
20736;BMP180;10528;52.124;5.196;2023-07-13T02:56:04;101307.00;;;24.20
20736;BMP180;10528;52.124;5.196;2023-07-13T02:58:31;101315.00;;;24.20
20736;BMP180;10528;52.124;5.196;2023-07-13T03:00:59;101306.00;;;24.20
20736;BMP180;10528;52.124;5.196;2023-07-13T03:03:26;101303.00;;;24.10
20736;BMP180;10528;52.124;5.196;2023-07-13T03:06:00;101307.00;;;24.20
20736;BMP180;10528;52.124;5.196;2023-07-13T03:08:33;101311.00;;;24.20
20736;BMP180;10528;52.124;5.196;2023-07-13T03:11:15;101316.00;;;24.10
20736;BMP180;10528;52.124;5.196;2023-07-13T03:13:43;101319.00;;;24.10
20736;BMP180;10528;52.124;5.196;2023-07-13T03:16:12;101317.00;;;24.10
20736;BMP180;10528;52.124;5.196;2023-07-13T03:18:46;101317.00;;;24.10
20736;BMP180;10528;52.124;5.196;2023-07-13T03:21:14;101319.00;;;24.10
20736;BMP180;10528;52.124;5.196;2023-07-13T03:23:42;101311.00;;;24.00
20736;BMP180;10528;52.124;5.196;2023-07-13T03:26:14;101312.00;;;24.00
20736;BMP180;10528;52.124;5.196;2023-07-13T03:28:43;101302.00;;;24.10
20736;BMP180;10528;52.124;5.196;2023-07-13T03:31:18;101310.00;;;24.10
20736;BMP180;10528;52.124;5.196;2023-07-13T03:33:46;101318.00;;;24.10
20736;BMP180;10528;52.124;5.196;2023-07-13T03:36:21;101329.00;;;24.10
20736;BMP180;10528;52.124;5.196;2023-07-13T03:38:55;101331.00;;;24.10
20736;BMP180;10528;52.124;5.196;2023-07-13T03:41:26;101333.00;;;24.10
20736;BMP180;10528;52.124;5.196;2023-07-13T03:43:54;101331.00;;;24.10
20736;BMP180;10528;52.124;5.196;2023-07-13T03:46:23;101331.00;;;24.10
20736;BMP180;10528;52.124;5.196;2023-07-13T03:48:51;101334.00;;;24.10
20736;BMP180;10528;52.124;5.196;2023-07-13T03:51:19;101335.00;;;24.10
20736;BMP180;10528;52.124;5.196;2023-07-13T03:53:47;101340.00;;;24.10
20736;BMP180;10528;52.124;5.196;2023-07-13T03:56:18;101334.00;;;24.10
20736;BMP180;10528;52.124;5.196;2023-07-13T03:58:48;101341.00;;;24.10
20736;BMP180;10528;52.124;5.196;2023-07-13T04:01:23;101340.00;;;24.10
20736;BMP180;10528;52.124;5.196;2023-07-13T04:03:52;101346.00;;;24.10
20736;BMP180;10528;52.124;5.196;2023-07-13T04:06:27;101346.00;;;24.10
20736;BMP180;10528;52.124;5.196;2023-07-13T04:08:58;101352.00;;;24.10
20736;BMP180;10528;52.124;5.196;2023-07-13T04:11:29;101355.00;;;24.10
20736;BMP180;10528;52.124;5.196;2023-07-13T04:13:56;101360.00;;;24.10
20736;BMP180;10528;52.124;5.196;2023-07-13T04:16:24;101350.00;;;24.10
20736;BMP180;10528;52.124;5.196;2023-07-13T04:18:52;101360.00;;;24.10
20736;BMP180;10528;52.124;5.196;2023-07-13T04:21:29;101360.00;;;24.00
20736;BMP180;10528;52.124;5.196;2023-07-13T04:23:56;101347.00;;;24.10
20736;BMP180;10528;52.124;5.196;2023-07-13T04:26:24;101366.00;;;24.10
20736;BMP180;10528;52.124;5.196;2023-07-13T04:28:52;101370.00;;;24.10
20736;BMP180;10528;52.124;5.196;2023-07-13T04:31:19;101375.00;;;24.10
20736;BMP180;10528;52.124;5.196;2023-07-13T04:33:47;101367.00;;;24.10
20736;BMP180;10528;52.124;5.196;2023-07-13T04:36:16;101369.00;;;24.10
20736;BMP180;10528;52.124;5.196;2023-07-13T04:38:43;101372.00;;;24.10
20736;BMP180;10528;52.124;5.196;2023-07-13T04:41:12;101376.00;;;24.20
20736;BMP180;10528;52.124;5.196;2023-07-13T04:43:40;101374.00;;;24.10
20736;BMP180;10528;52.124;5.196;2023-07-13T04:46:11;101369.00;;;24.20
20736;BMP180;10528;52.124;5.196;2023-07-13T04:48:39;101375.00;;;24.30
20736;BMP180;10528;52.124;5.196;2023-07-13T04:51:07;101374.00;;;24.20
20736;BMP180;10528;52.124;5.196;2023-07-13T04:53:34;101369.00;;;24.20
20736;BMP180;10528;52.124;5.196;2023-07-13T04:56:03;101371.00;;;24.40
20736;BMP180;10528;52.124;5.196;2023-07-13T04:58:31;101374.00;;;24.50
20736;BMP180;10528;52.124;5.196;2023-07-13T05:01:03;101381.00;;;24.50
20736;BMP180;10528;52.124;5.196;2023-07-13T05:03:32;101384.00;;;24.70
20736;BMP180;10528;52.124;5.196;2023-07-13T05:06:04;101384.00;;;24.60
20736;BMP180;10528;52.124;5.196;2023-07-13T05:08:32;101372.00;;;24.70
20736;BMP180;10528;52.124;5.196;2023-07-13T05:11:01;101384.00;;;24.80
20736;BMP180;10528;52.124;5.196;2023-07-13T05:13:29;101382.00;;;24.90
20736;BMP180;10528;52.124;5.196;2023-07-13T05:16:00;101384.00;;;24.90
20736;BMP180;10528;52.124;5.196;2023-07-13T05:18:29;101382.00;;;25.00
20736;BMP180;10528;52.124;5.196;2023-07-13T05:21:02;101390.00;;;25.00
20736;BMP180;10528;52.124;5.196;2023-07-13T05:23:31;101383.00;;;25.10
20736;BMP180;10528;52.124;5.196;2023-07-13T05:25:59;101387.00;;;25.10
20736;BMP180;10528;52.124;5.196;2023-07-13T05:28:27;101395.00;;;25.00
20736;BMP180;10528;52.124;5.196;2023-07-13T05:30:57;101392.00;;;25.10
20736;BMP180;10528;52.124;5.196;2023-07-13T05:33:25;101396.00;;;25.10
20736;BMP180;10528;52.124;5.196;2023-07-13T05:35:52;101405.00;;;24.70
20736;BMP180;10528;52.124;5.196;2023-07-13T05:38:19;101393.00;;;24.90
20736;BMP180;10528;52.124;5.196;2023-07-13T05:40:47;101406.00;;;25.20
20736;BMP180;10528;52.124;5.196;2023-07-13T05:43:14;101408.00;;;25.30
20736;BMP180;10528;52.124;5.196;2023-07-13T05:45:41;101408.00;;;25.60
20736;BMP180;10528;52.124;5.196;2023-07-13T05:48:08;101402.00;;;25.90
20736;BMP180;10528;52.124;5.196;2023-07-13T05:50:35;101412.00;;;26.00
20736;BMP180;10528;52.124;5.196;2023-07-13T05:53:03;101414.00;;;26.10
20736;BMP180;10528;52.124;5.196;2023-07-13T05:55:31;101428.00;;;26.10
20736;BMP180;10528;52.124;5.196;2023-07-13T05:57:59;101423.00;;;26.30
20736;BMP180;10528;52.124;5.196;2023-07-13T06:00:26;101422.00;;;26.40
20736;BMP180;10528;52.124;5.196;2023-07-13T06:02:54;101429.00;;;26.40
20736;BMP180;10528;52.124;5.196;2023-07-13T06:05:22;101426.00;;;26.50
20736;BMP180;10528;52.124;5.196;2023-07-13T06:07:49;101433.00;;;26.70
20736;BMP180;10528;52.124;5.196;2023-07-13T06:10:16;101439.00;;;26.90
20736;BMP180;10528;52.124;5.196;2023-07-13T06:12:43;101445.00;;;27.10
20736;BMP180;10528;52.124;5.196;2023-07-13T06:15:11;101445.00;;;27.30
20736;BMP180;10528;52.124;5.196;2023-07-13T06:17:38;101446.00;;;27.60
20736;BMP180;10528;52.124;5.196;2023-07-13T06:20:06;101446.00;;;27.90
20736;BMP180;10528;52.124;5.196;2023-07-13T06:22:34;101451.00;;;28.20
20736;BMP180;10528;52.124;5.196;2023-07-13T06:25:01;101457.00;;;28.30
20736;BMP180;10528;52.124;5.196;2023-07-13T06:27:28;101457.00;;;28.30
20736;BMP180;10528;52.124;5.196;2023-07-13T06:29:57;101462.00;;;28.20
20736;BMP180;10528;52.124;5.196;2023-07-13T06:32:24;101464.00;;;28.10
20736;BMP180;10528;52.124;5.196;2023-07-13T06:34:51;101454.00;;;28.00
20736;BMP180;10528;52.124;5.196;2023-07-13T06:37:21;101460.00;;;27.90
20736;BMP180;10528;52.124;5.196;2023-07-13T06:39:48;101458.00;;;27.80
20736;BMP180;10528;52.124;5.196;2023-07-13T06:42:16;101447.00;;;27.70
20736;BMP180;10528;52.124;5.196;2023-07-13T06:44:44;101446.00;;;27.70
20736;BMP180;10528;52.124;5.196;2023-07-13T06:47:11;101460.00;;;27.80
20736;BMP180;10528;52.124;5.196;2023-07-13T06:49:38;101461.00;;;28.10
20736;BMP180;10528;52.124;5.196;2023-07-13T06:52:06;101472.00;;;28.30
20736;BMP180;10528;52.124;5.196;2023-07-13T06:54:33;101474.00;;;28.30
20736;BMP180;10528;52.124;5.196;2023-07-13T06:57:00;101480.00;;;28.20
20736;BMP180;10528;52.124;5.196;2023-07-13T06:59:27;101487.00;;;28.10
20736;BMP180;10528;52.124;5.196;2023-07-13T07:01:54;101484.00;;;28.00
20736;BMP180;10528;52.124;5.196;2023-07-13T07:04:21;101470.00;;;27.80
20736;BMP180;10528;52.124;5.196;2023-07-13T07:06:48;101499.00;;;27.70
20736;BMP180;10528;52.124;5.196;2023-07-13T07:09:15;101501.00;;;27.50
20736;BMP180;10528;52.124;5.196;2023-07-13T07:11:43;101494.00;;;27.30
20736;BMP180;10528;52.124;5.196;2023-07-13T07:14:29;101502.00;;;27.20
20736;BMP180;10528;52.124;5.196;2023-07-13T07:16:56;101508.00;;;27.00
20736;BMP180;10528;52.124;5.196;2023-07-13T07:19:27;101508.00;;;26.80
20736;BMP180;10528;52.124;5.196;2023-07-13T07:21:54;101500.00;;;26.70
20736;BMP180;10528;52.124;5.196;2023-07-13T07:24:21;101505.00;;;26.60
20736;BMP180;10528;52.124;5.196;2023-07-13T07:26:48;101498.00;;;26.50
20736;BMP180;10528;52.124;5.196;2023-07-13T07:29:18;101494.00;;;26.30
20736;BMP180;10528;52.124;5.196;2023-07-13T07:31:49;101493.00;;;26.30
20736;BMP180;10528;52.124;5.196;2023-07-13T07:34:32;101493.00;;;26.20
20736;BMP180;10528;52.124;5.196;2023-07-13T07:37:01;101489.00;;;26.10
20736;BMP180;10528;52.124;5.196;2023-07-13T07:39:31;101485.00;;;26.10
20736;BMP180;10528;52.124;5.196;2023-07-13T07:41:58;101482.00;;;26.20
20736;BMP180;10528;52.124;5.196;2023-07-13T07:44:25;101491.00;;;26.70
20736;BMP180;10528;52.124;5.196;2023-07-13T07:46:54;101491.00;;;27.00
20736;BMP180;10528;52.124;5.196;2023-07-13T07:49:21;101502.00;;;27.20
20736;BMP180;10528;52.124;5.196;2023-07-13T07:51:49;101498.00;;;27.20
20736;BMP180;10528;52.124;5.196;2023-07-13T07:54:16;101508.00;;;27.30
20736;BMP180;10528;52.124;5.196;2023-07-13T07:57:03;101501.00;;;28.00
20736;BMP180;10528;52.124;5.196;2023-07-13T07:59:33;101506.00;;;28.50
20736;BMP180;10528;52.124;5.196;2023-07-13T08:02:04;101503.00;;;28.80
20736;BMP180;10528;52.124;5.196;2023-07-13T08:04:34;101498.00;;;29.00
20736;BMP180;10528;52.124;5.196;2023-07-13T08:07:04;101495.00;;;29.30
20736;BMP180;10528;52.124;5.196;2023-07-13T08:09:31;101492.00;;;29.60
20736;BMP180;10528;52.124;5.196;2023-07-13T08:11:58;101504.00;;;29.70
20736;BMP180;10528;52.124;5.196;2023-07-13T08:14:28;101493.00;;;29.90
20736;BMP180;10528;52.124;5.196;2023-07-13T08:17:16;101491.00;;;30.30
20736;BMP180;10528;52.124;5.196;2023-07-13T08:19:43;101500.00;;;30.30
20736;BMP180;10528;52.124;5.196;2023-07-13T08:22:10;101506.00;;;30.30
20736;BMP180;10528;52.124;5.196;2023-07-13T08:24:37;101499.00;;;30.20
20736;BMP180;10528;52.124;5.196;2023-07-13T08:27:04;101505.00;;;30.00
20736;BMP180;10528;52.124;5.196;2023-07-13T08:29:31;101505.00;;;29.80
20736;BMP180;10528;52.124;5.196;2023-07-13T08:31:58;101502.00;;;29.40
20736;BMP180;10528;52.124;5.196;2023-07-13T08:34:26;101506.00;;;29.20
20736;BMP180;10528;52.124;5.196;2023-07-13T08:36:52;101521.00;;;28.90
20736;BMP180;10528;52.124;5.196;2023-07-13T08:39:19;101536.00;;;28.60
20736;BMP180;10528;52.124;5.196;2023-07-13T08:41:57;101534.00;;;28.30
20736;BMP180;10528;52.124;5.196;2023-07-13T08:44:40;101532.00;;;28.10
20736;BMP180;10528;52.124;5.196;2023-07-13T08:47:15;101538.00;;;27.80
20736;BMP180;10528;52.124;5.196;2023-07-13T08:49:44;101539.00;;;27.60
20736;BMP180;10528;52.124;5.196;2023-07-13T08:52:29;101542.00;;;27.40
20736;BMP180;10528;52.124;5.196;2023-07-13T08:55:13;101527.00;;;27.20
20736;BMP180;10528;52.124;5.196;2023-07-13T08:57:44;101538.00;;;27.00
20736;BMP180;10528;52.124;5.196;2023-07-13T09:00:14;101527.00;;;26.80
20736;BMP180;10528;52.124;5.196;2023-07-13T09:03:02;101531.00;;;26.60
20736;BMP180;10528;52.124;5.196;2023-07-13T09:05:40;101536.00;;;26.50
20736;BMP180;10528;52.124;5.196;2023-07-13T09:16:55;101518.00;;;26.50
20736;BMP180;10528;52.124;5.196;2023-07-13T09:19:29;101520.00;;;26.60
20736;BMP180;10528;52.124;5.196;2023-07-13T09:22:02;101524.00;;;26.70
20736;BMP180;10528;52.124;5.196;2023-07-13T09:25:03;101531.00;;;26.80
20736;BMP180;10528;52.124;5.196;2023-07-13T09:27:45;101530.00;;;26.90
20736;BMP180;10528;52.124;5.196;2023-07-13T09:32:52;101544.00;;;26.80
20736;BMP180;10528;52.124;5.196;2023-07-13T09:35:26;101576.00;;;26.40
20736;BMP180;10528;52.124;5.196;2023-07-13T09:38:18;101584.00;;;26.30
20736;BMP180;10528;52.124;5.196;2023-07-13T09:41:14;101553.00;;;26.20
20736;BMP180;10528;52.124;5.196;2023-07-13T09:44:10;101550.00;;;26.00
20736;BMP180;10528;52.124;5.196;2023-07-13T09:46:45;101543.00;;;25.90
20736;BMP180;10528;52.124;5.196;2023-07-13T09:49:13;101546.00;;;25.90
20736;BMP180;10528;52.124;5.196;2023-07-13T09:51:41;101547.00;;;25.80
20736;BMP180;10528;52.124;5.196;2023-07-13T09:54:21;101536.00;;;25.90
20736;BMP180;10528;52.124;5.196;2023-07-13T09:56:59;101542.00;;;25.90
20736;BMP180;10528;52.124;5.196;2023-07-13T09:59:48;101557.00;;;26.00
20736;BMP180;10528;52.124;5.196;2023-07-13T10:02:35;101545.00;;;26.00
20736;BMP180;10528;52.124;5.196;2023-07-13T10:05:13;101554.00;;;26.10
20736;BMP180;10528;52.124;5.196;2023-07-13T10:07:44;101554.00;;;26.10
20736;BMP180;10528;52.124;5.196;2023-07-13T10:10:22;101564.00;;;26.20
20736;BMP180;10528;52.124;5.196;2023-07-13T10:12:50;101578.00;;;26.20
20736;BMP180;10528;52.124;5.196;2023-07-13T10:15:24;101563.00;;;26.30
20736;BMP180;10528;52.124;5.196;2023-07-13T10:17:55;101566.00;;;26.40
20736;BMP180;10528;52.124;5.196;2023-07-13T10:20:23;101576.00;;;26.40
20736;BMP180;10528;52.124;5.196;2023-07-13T10:23:04;101564.00;;;26.40
20736;BMP180;10528;52.124;5.196;2023-07-13T10:25:38;101575.00;;;26.40
20736;BMP180;10528;52.124;5.196;2023-07-13T10:28:32;101581.00;;;26.50
20736;BMP180;10528;52.124;5.196;2023-07-13T10:31:06;101575.00;;;26.60
20736;BMP180;10528;52.124;5.196;2023-07-13T10:33:38;101587.00;;;26.70
20736;BMP180;10528;52.124;5.196;2023-07-13T10:36:41;101587.00;;;26.80
20736;BMP180;10528;52.124;5.196;2023-07-13T10:39:17;101577.00;;;27.00
20736;BMP180;10528;52.124;5.196;2023-07-13T10:41:50;101565.00;;;27.10
20736;BMP180;10528;52.124;5.196;2023-07-13T10:44:30;101575.00;;;27.10
20736;BMP180;10528;52.124;5.196;2023-07-13T10:47:15;101585.00;;;27.10
20736;BMP180;10528;52.124;5.196;2023-07-13T10:49:43;101570.00;;;27.10
20736;BMP180;10528;52.124;5.196;2023-07-13T10:52:45;101582.00;;;27.20
20736;BMP180;10528;52.124;5.196;2023-07-13T10:55:41;101578.00;;;27.20
20736;BMP180;10528;52.124;5.196;2023-07-13T10:58:37;101585.00;;;27.30
20736;BMP180;10528;52.124;5.196;2023-07-13T11:01:15;101582.00;;;27.40
20736;BMP180;10528;52.124;5.196;2023-07-13T11:04:03;101580.00;;;27.50
20736;BMP180;10528;52.124;5.196;2023-07-13T11:06:59;101581.00;;;27.50
20736;BMP180;10528;52.124;5.196;2023-07-13T11:09:39;101580.00;;;27.60
20736;BMP180;10528;52.124;5.196;2023-07-13T11:15:06;101582.00;;;27.70
20736;BMP180;10528;52.124;5.196;2023-07-13T11:17:50;101599.00;;;27.60
20736;BMP180;10528;52.124;5.196;2023-07-13T11:20:32;101617.00;;;27.60
20736;BMP180;10528;52.124;5.196;2023-07-13T11:25:40;101600.00;;;27.70
20736;BMP180;10528;52.124;5.196;2023-07-13T11:33:54;101604.00;;;27.70
20736;BMP180;10528;52.124;5.196;2023-07-13T11:36:30;101613.00;;;27.70
20736;BMP180;10528;52.124;5.196;2023-07-13T11:39:05;101603.00;;;27.70
20736;BMP180;10528;52.124;5.196;2023-07-13T11:41:49;101607.00;;;27.70
20736;BMP180;10528;52.124;5.196;2023-07-13T11:44:22;101606.00;;;27.70
20736;BMP180;10528;52.124;5.196;2023-07-13T11:46:54;101602.00;;;27.60
20736;BMP180;10528;52.124;5.196;2023-07-13T11:49:31;101614.00;;;27.60
20736;BMP180;10528;52.124;5.196;2023-07-13T11:52:01;101603.00;;;27.50
20736;BMP180;10528;52.124;5.196;2023-07-13T11:54:41;101613.00;;;27.50
20736;BMP180;10528;52.124;5.196;2023-07-13T11:57:32;101615.00;;;27.40
20736;BMP180;10528;52.124;5.196;2023-07-13T12:00:09;101621.00;;;27.40
20736;BMP180;10528;52.124;5.196;2023-07-13T12:02:42;101608.00;;;27.40
20736;BMP180;10528;52.124;5.196;2023-07-13T12:05:16;101616.00;;;27.30
20736;BMP180;10528;52.124;5.196;2023-07-13T12:07:51;101617.00;;;27.30
20736;BMP180;10528;52.124;5.196;2023-07-13T12:10:30;101617.00;;;27.30
20736;BMP180;10528;52.124;5.196;2023-07-13T12:13:03;101614.00;;;27.30
20736;BMP180;10528;52.124;5.196;2023-07-13T12:15:44;101612.00;;;27.30
20736;BMP180;10528;52.124;5.196;2023-07-13T12:18:18;101608.00;;;27.30
20736;BMP180;10528;52.124;5.196;2023-07-13T12:20:47;101605.00;;;27.40
20736;BMP180;10528;52.124;5.196;2023-07-13T12:25:57;101616.00;;;27.50
20736;BMP180;10528;52.124;5.196;2023-07-13T12:28:37;101613.00;;;27.50
20736;BMP180;10528;52.124;5.196;2023-07-13T12:31:24;101606.00;;;27.60
20736;BMP180;10528;52.124;5.196;2023-07-13T12:34:22;101605.00;;;27.70
20736;BMP180;10528;52.124;5.196;2023-07-13T12:36:55;101607.00;;;27.70
20736;BMP180;10528;52.124;5.196;2023-07-13T12:39:38;101605.00;;;27.70
20736;BMP180;10528;52.124;5.196;2023-07-13T12:45:18;101605.00;;;27.70
20736;BMP180;10528;52.124;5.196;2023-07-13T12:47:52;101605.00;;;27.60
20736;BMP180;10528;52.124;5.196;2023-07-13T12:50:23;101605.00;;;27.70
20736;BMP180;10528;52.124;5.196;2023-07-13T12:52:54;101613.00;;;27.70
20736;BMP180;10528;52.124;5.196;2023-07-13T12:55:23;101613.00;;;27.80
20736;BMP180;10528;52.124;5.196;2023-07-13T12:57:57;101612.00;;;27.70
20736;BMP180;10528;52.124;5.196;2023-07-13T13:00:35;101612.00;;;27.80
20736;BMP180;10528;52.124;5.196;2023-07-13T13:03:21;101614.00;;;27.80
20736;BMP180;10528;52.124;5.196;2023-07-13T13:06:26;101619.00;;;27.80
20736;BMP180;10528;52.124;5.196;2023-07-13T13:08:56;101620.00;;;27.80
20736;BMP180;10528;52.124;5.196;2023-07-13T13:11:28;101627.00;;;27.80
20736;BMP180;10528;52.124;5.196;2023-07-13T13:13:55;101617.00;;;27.80
20736;BMP180;10528;52.124;5.196;2023-07-13T13:16:37;101626.00;;;27.70
20736;BMP180;10528;52.124;5.196;2023-07-13T13:19:27;101626.00;;;27.70
20736;BMP180;10528;52.124;5.196;2023-07-13T13:21:56;101632.00;;;27.80
20736;BMP180;10528;52.124;5.196;2023-07-13T13:24:27;101632.00;;;27.80
20736;BMP180;10528;52.124;5.196;2023-07-13T13:26:55;101633.00;;;27.80
20736;BMP180;10528;52.124;5.196;2023-07-13T13:29:25;101633.00;;;27.80
20736;BMP180;10528;52.124;5.196;2023-07-13T13:31:56;101632.00;;;27.80
20736;BMP180;10528;52.124;5.196;2023-07-13T13:34:24;101633.00;;;27.80
20736;BMP180;10528;52.124;5.196;2023-07-13T13:36:53;101626.00;;;27.80
20736;BMP180;10528;52.124;5.196;2023-07-13T13:39:36;101632.00;;;27.80
20736;BMP180;10528;52.124;5.196;2023-07-13T13:42:08;101633.00;;;27.80
20736;BMP180;10528;52.124;5.196;2023-07-13T13:44:35;101641.00;;;27.90
20736;BMP180;10528;52.124;5.196;2023-07-13T13:47:03;101640.00;;;27.90
20736;BMP180;10528;52.124;5.196;2023-07-13T13:49:30;101639.00;;;27.90
20736;BMP180;10528;52.124;5.196;2023-07-13T13:51:57;101637.00;;;27.90
20736;BMP180;10528;52.124;5.196;2023-07-13T13:54:26;101629.00;;;27.90
20736;BMP180;10528;52.124;5.196;2023-07-13T13:56:55;101626.00;;;27.90
20736;BMP180;10528;52.124;5.196;2023-07-13T13:59:22;101639.00;;;27.90
20736;BMP180;10528;52.124;5.196;2023-07-13T14:01:49;101628.00;;;27.90
20736;BMP180;10528;52.124;5.196;2023-07-13T14:04:22;101632.00;;;27.90
20736;BMP180;10528;52.124;5.196;2023-07-13T14:06:49;101630.00;;;27.80
20736;BMP180;10528;52.124;5.196;2023-07-13T14:09:19;101639.00;;;27.80
20736;BMP180;10528;52.124;5.196;2023-07-13T14:11:49;101645.00;;;27.80
20736;BMP180;10528;52.124;5.196;2023-07-13T14:14:22;101651.00;;;27.80
20736;BMP180;10528;52.124;5.196;2023-07-13T14:16:51;101631.00;;;27.70
20736;BMP180;10528;52.124;5.196;2023-07-13T14:19:21;101636.00;;;27.80
20736;BMP180;10528;52.124;5.196;2023-07-13T14:21:49;101646.00;;;27.80
20736;BMP180;10528;52.124;5.196;2023-07-13T14:24:16;101640.00;;;27.60
20736;BMP180;10528;52.124;5.196;2023-07-13T14:26:46;101649.00;;;27.50
20736;BMP180;10528;52.124;5.196;2023-07-13T14:29:19;101644.00;;;27.60
20736;BMP180;10528;52.124;5.196;2023-07-13T14:31:50;101648.00;;;27.60
20736;BMP180;10528;52.124;5.196;2023-07-13T14:34:18;101644.00;;;27.70
20736;BMP180;10528;52.124;5.196;2023-07-13T14:36:48;101640.00;;;27.60
20736;BMP180;10528;52.124;5.196;2023-07-13T14:39:20;101636.00;;;27.70
20736;BMP180;10528;52.124;5.196;2023-07-13T14:41:52;101648.00;;;27.70
20736;BMP180;10528;52.124;5.196;2023-07-13T14:44:27;101645.00;;;27.80
20736;BMP180;10528;52.124;5.196;2023-07-13T14:47:01;101643.00;;;27.80
20736;BMP180;10528;52.124;5.196;2023-07-13T14:49:38;101645.00;;;27.80
20736;BMP180;10528;52.124;5.196;2023-07-13T14:52:15;101652.00;;;27.70